»·PEaware :: N223CA KOLM-KPDX

N223CA :: KOLM-KPDX

FLIGHT INFORMATION

Flight Status: Arrived
Operator: Privately registered:
United States
More flights under this callsign
Pilot: Joe C. (19058)
Aircraft: EMBRAER BANDEIRANTE
(E110)
More flights by this aircraft type
Origin: KOLM Olympia
United States
Destination: KPDX Portland Intl
United States
More flights between these airports :: More routes between these airports
Route: OLM V287 BTG
File this flight plan on PilotEdge
Remarks:
Altitude:
(Current/Filed)
9,000ft
Speed:
(Current/Filed)
180kts
Departed: 06-Sep-18 05:01 PM
Arrived: 06-Sep-18 05:38 PM
Distance/Time
Traveled:
84nm/0:37
Distance/Time
To Go:
Arrived

Flight Plot

Page will automatically refresh every two minutes.

Flight plan parsing failed; only flown route is shown


Map Options




Map Legend


Flown Route
Filed Route
Departure Airport
Arrival Airport
Navaid (VOR, NDB)
Fix

Horizontal Profiles

Position Reports

Time Latitude Longitude Heading Altitude Ground
Speed
06-Sep-18 16:48 46.975358 -122.898901 281 197ft 0kts
06-Sep-18 16:49 46.975358 -122.898901 281 197ft 0kts
06-Sep-18 16:50 46.975358 -122.898901 281 197ft 0kts
06-Sep-18 16:51 46.975358 -122.898901 281 197ft 0kts
06-Sep-18 16:52 46.975358 -122.898901 281 197ft 0kts
06-Sep-18 16:53 46.975358 -122.898901 281 197ft 0kts
06-Sep-18 16:54 46.975358 -122.898901 281 197ft 0kts
06-Sep-18 16:55 46.975358 -122.898901 281 197ft 0kts
06-Sep-18 16:56 46.975358 -122.898901 281 197ft 0kts
06-Sep-18 16:57 46.975358 -122.898901 281 197ft 0kts
06-Sep-18 16:58 46.975358 -122.898901 281 197ft 0kts
06-Sep-18 16:59 46.975358 -122.898901 281 197ft 0kts
06-Sep-18 17:00 46.975358 -122.898901 281 197ft 0kts
06-Sep-18 17:01 46.976144 -122.901182 280 196ft 0kts
06-Sep-18 17:02 46.976092 -122.902284 224 196ft 13kts
06-Sep-18 17:03 46.951894 -122.907781 170 894ft 127kts
06-Sep-18 17:04 46.945873 -122.860768 81 2569ft 136kts
06-Sep-18 17:05 46.952448 -122.808885 80 3830ft 127kts
06-Sep-18 17:06 46.944758 -122.766646 177 4960ft 117kts
06-Sep-18 17:07 46.912852 -122.766088 185 6111ft 115kts
06-Sep-18 17:08 46.881417 -122.766702 187 7210ft 112kts
06-Sep-18 17:09 46.850455 -122.767099 187 8232ft 111kts
06-Sep-18 17:10 46.819605 -122.767070 187 9091ft 118kts
06-Sep-18 17:11 46.777946 -122.768675 186 9018ft 170kts
06-Sep-18 17:12 46.728440 -122.771456 186 9013ft 184kts
06-Sep-18 17:13 46.676305 -122.774527 186 9012ft 189kts
06-Sep-18 17:14 46.623502 -122.777560 187 9012ft 190kts
06-Sep-18 17:15 46.570502 -122.778905 178 9012ft 193kts
06-Sep-18 17:16 46.516872 -122.772097 180 9027ft 195kts
06-Sep-18 17:17 46.462494 -122.765124 178 9022ft 196kts
06-Sep-18 17:18 46.408569 -122.756781 175 9029ft 195kts
06-Sep-18 17:19 46.355325 -122.743720 175 9028ft 194kts
06-Sep-18 17:20 46.302133 -122.730327 174 9028ft 193kts
06-Sep-18 17:21 46.249269 -122.716981 174 9028ft 193kts
06-Sep-18 17:22 46.196178 -122.703595 174 9028ft 193kts
06-Sep-18 17:23 46.143304 -122.690287 174 9028ft 193kts
06-Sep-18 17:24 46.090235 -122.676955 174 9028ft 193kts
06-Sep-18 17:25 46.037167 -122.663648 175 9017ft 195kts
06-Sep-18 17:26 45.983018 -122.650106 175 9003ft 200kts
06-Sep-18 17:27 45.929519 -122.636764 170 8976ft 189kts
06-Sep-18 17:28 45.878824 -122.624152 169 8985ft 183kts
06-Sep-18 17:29 45.827873 -122.611424 175 8997ft 192kts
06-Sep-18 17:30 45.774054 -122.598061 175 8987ft 198kts
06-Sep-18 17:31 45.720236 -122.583524 173 8776ft 190kts
06-Sep-18 17:32 45.687158 -122.525581 115 6971ft 206kts
06-Sep-18 17:33 45.660999 -122.454060 122 5234ft 200kts
06-Sep-18 17:34 45.626379 -122.408481 171 4078ft 165kts
06-Sep-18 17:35 45.584555 -122.432506 208 2639ft 158kts
06-Sep-18 17:36 45.550108 -122.459783 209 1735ft 129kts
06-Sep-18 17:37 45.538790 -122.490922 319 1549ft 109kts
06-Sep-18 17:38 45.559506 -122.530575 300 862ft 116kts
06-Sep-18 17:39 45.574487 -122.568584 299 361ft 120kts
06-Sep-18 17:40 45.584561 -122.591765 22 20ft 12kts
06-Sep-18 17:41 45.584869 -122.591616 5 21ft 3kts
06-Sep-18 17:42 45.588466 -122.598941 298 20ft 27kts
06-Sep-18 17:43 45.592465 -122.598147 31 23ft 23kts
06-Sep-18 17:44 45.591263 -122.589782 118 21ft 30kts
06-Sep-18 17:45 45.586788 -122.578305 117 21ft 34kts

Navigation Log

Ident Type
Flight plan parsing failed, navigation log unavailable